Forest Row, United Kingdom
Current Conditions -  °F | °C
As of 5:50 PM on Sunday 25 Jan 2015 (Local Time) from EGKK Reporting Station
Broken Clouds Broken Clouds  
Wind Chill:   Ceiling: 2000
Heat Index:   Visibility: 6mi
Dew Point:   Wind: 7mph
Humidity: 76%   Direction: 220°SW
Pressure: 30.36"   Gusts: NA
Location:  51.1°N, 0.03°E
Report Text: EGKK 251750Z 22006KT 9999 BKN020 07/03 Q1028
Loading
Personal Weather Stations






























Interactive Weather Map New forecast layout! Learn more

10-Day Weather Forecast

Advertisements
Track Severe Weather on mobile